sensor_id;sensor_type;location;lat;lon;timestamp;P1;durP1;ratioP1;P2;durP2;ratioP2
13250;SDS011;6692;50.710;7.180;2023-06-05T00:01:24;1999.90;;;999.90;;
13250;SDS011;6692;50.710;7.180;2023-06-05T00:03:25;1999.90;;;999.90;;
13250;SDS011;6692;50.710;7.180;2023-06-05T00:05:26;1999.90;;;999.90;;
13250;SDS011;6692;50.710;7.180;2023-06-05T00:07:27;1999.90;;;999.90;;
13250;SDS011;6692;50.710;7.180;2023-06-05T00:09:29;1999.90;;;999.90;;
13250;SDS011;6692;50.710;7.180;2023-06-05T00:11:30;1999.90;;;999.90;;
13250;SDS011;6692;50.710;7.180;2023-06-05T00:13:31;1999.90;;;999.90;;
13250;SDS011;6692;50.710;7.180;2023-06-05T00:15:32;1999.90;;;999.90;;
13250;SDS011;6692;50.710;7.180;2023-06-05T00:17:33;1999.90;;;999.90;;
13250;SDS011;6692;50.710;7.180;2023-06-05T00:19:33;1999.90;;;999.90;;
13250;SDS011;6692;50.710;7.180;2023-06-05T00:21:34;1999.90;;;999.90;;
13250;SDS011;6692;50.710;7.180;2023-06-05T00:23:35;1999.90;;;999.90;;
13250;SDS011;6692;50.710;7.180;2023-06-05T00:25:36;1999.90;;;999.90;;
13250;SDS011;6692;50.710;7.180;2023-06-05T00:27:37;1999.90;;;999.90;;
13250;SDS011;6692;50.710;7.180;2023-06-05T00:29:38;1999.90;;;999.90;;
13250;SDS011;6692;50.710;7.180;2023-06-05T00:31:39;1999.90;;;999.90;;
13250;SDS011;6692;50.710;7.180;2023-06-05T00:33:40;1999.90;;;999.90;;
13250;SDS011;6692;50.710;7.180;2023-06-05T00:35:42;1999.90;;;999.90;;
13250;SDS011;6692;50.710;7.180;2023-06-05T00:37:42;1999.90;;;999.90;;
13250;SDS011;6692;50.710;7.180;2023-06-05T00:39:43;1999.90;;;999.90;;
13250;SDS011;6692;50.710;7.180;2023-06-05T00:41:44;1999.90;;;999.90;;
13250;SDS011;6692;50.710;7.180;2023-06-05T00:43:44;1999.90;;;999.90;;
13250;SDS011;6692;50.710;7.180;2023-06-05T00:45:45;1999.90;;;999.90;;
13250;SDS011;6692;50.710;7.180;2023-06-05T00:47:46;1999.90;;;999.90;;
13250;SDS011;6692;50.710;7.180;2023-06-05T00:49:47;1999.90;;;999.90;;
13250;SDS011;6692;50.710;7.180;2023-06-05T00:51:48;1999.90;;;999.90;;
13250;SDS011;6692;50.710;7.180;2023-06-05T00:53:48;1999.90;;;999.90;;
13250;SDS011;6692;50.710;7.180;2023-06-05T00:55:50;1999.90;;;999.90;;
13250;SDS011;6692;50.710;7.180;2023-06-05T00:57:50;1999.90;;;999.90;;
13250;SDS011;6692;50.710;7.180;2023-06-05T00:59:51;1999.90;;;999.90;;
13250;SDS011;6692;50.710;7.180;2023-06-05T01:01:52;1999.90;;;999.90;;
13250;SDS011;6692;50.710;7.180;2023-06-05T01:03:53;1999.90;;;999.90;;
13250;SDS011;6692;50.710;7.180;2023-06-05T01:05:54;1999.90;;;999.90;;
13250;SDS011;6692;50.710;7.180;2023-06-05T01:07:54;1999.90;;;999.90;;
13250;SDS011;6692;50.710;7.180;2023-06-05T01:09:56;1999.90;;;999.90;;
13250;SDS011;6692;50.710;7.180;2023-06-05T01:11:59;1999.90;;;999.90;;
13250;SDS011;6692;50.710;7.180;2023-06-05T01:16:14;1999.90;;;999.90;;
13250;SDS011;6692;50.710;7.180;2023-06-05T01:18:15;1999.90;;;999.90;;
13250;SDS011;6692;50.710;7.180;2023-06-05T01:20:16;1999.90;;;999.90;;
13250;SDS011;6692;50.710;7.180;2023-06-05T01:22:16;1999.90;;;999.90;;
13250;SDS011;6692;50.710;7.180;2023-06-05T01:24:18;1999.90;;;999.90;;
13250;SDS011;6692;50.710;7.180;2023-06-05T01:26:18;1999.90;;;999.90;;
13250;SDS011;6692;50.710;7.180;2023-06-05T01:28:20;1999.90;;;999.90;;
13250;SDS011;6692;50.710;7.180;2023-06-05T01:30:22;1999.90;;;999.90;;
13250;SDS011;6692;50.710;7.180;2023-06-05T01:32:28;1999.90;;;999.90;;
13250;SDS011;6692;50.710;7.180;2023-06-05T01:34:29;1999.90;;;999.90;;
13250;SDS011;6692;50.710;7.180;2023-06-05T01:36:30;1999.90;;;999.90;;
13250;SDS011;6692;50.710;7.180;2023-06-05T01:38:32;1999.90;;;999.90;;
13250;SDS011;6692;50.710;7.180;2023-06-05T01:40:33;1999.90;;;999.90;;
13250;SDS011;6692;50.710;7.180;2023-06-05T01:42:34;1999.90;;;999.90;;
13250;SDS011;6692;50.710;7.180;2023-06-05T01:44:34;1999.90;;;999.90;;
13250;SDS011;6692;50.710;7.180;2023-06-05T01:46:35;1999.90;;;999.90;;
13250;SDS011;6692;50.710;7.180;2023-06-05T01:48:36;1999.90;;;999.90;;
13250;SDS011;6692;50.710;7.180;2023-06-05T01:50:37;1999.90;;;999.90;;
13250;SDS011;6692;50.710;7.180;2023-06-05T01:52:38;1999.90;;;999.90;;
13250;SDS011;6692;50.710;7.180;2023-06-05T01:54:38;1999.90;;;999.90;;
13250;SDS011;6692;50.710;7.180;2023-06-05T01:56:39;1999.90;;;999.90;;
13250;SDS011;6692;50.710;7.180;2023-06-05T01:58:40;1999.90;;;999.90;;
13250;SDS011;6692;50.710;7.180;2023-06-05T02:00:41;1999.90;;;999.90;;
13250;SDS011;6692;50.710;7.180;2023-06-05T02:02:42;1999.90;;;999.90;;
13250;SDS011;6692;50.710;7.180;2023-06-05T02:04:43;1999.90;;;999.90;;
13250;SDS011;6692;50.710;7.180;2023-06-05T02:06:44;1999.90;;;999.90;;
13250;SDS011;6692;50.710;7.180;2023-06-05T02:08:45;1999.90;;;999.90;;
13250;SDS011;6692;50.710;7.180;2023-06-05T02:10:46;1999.90;;;999.90;;
13250;SDS011;6692;50.710;7.180;2023-06-05T02:12:47;1999.90;;;999.90;;
13250;SDS011;6692;50.710;7.180;2023-06-05T02:14:47;1999.90;;;999.90;;
13250;SDS011;6692;50.710;7.180;2023-06-05T02:16:48;1999.90;;;999.90;;
13250;SDS011;6692;50.710;7.180;2023-06-05T02:18:50;1999.90;;;999.90;;
13250;SDS011;6692;50.710;7.180;2023-06-05T02:20:53;1999.90;;;999.90;;
13250;SDS011;6692;50.710;7.180;2023-06-05T02:22:53;1999.90;;;999.90;;
13250;SDS011;6692;50.710;7.180;2023-06-05T02:24:54;1999.90;;;999.90;;
13250;SDS011;6692;50.710;7.180;2023-06-05T02:26:55;1999.90;;;999.90;;
13250;SDS011;6692;50.710;7.180;2023-06-05T02:28:56;1999.90;;;999.90;;
13250;SDS011;6692;50.710;7.180;2023-06-05T02:30:57;1999.90;;;999.90;;
13250;SDS011;6692;50.710;7.180;2023-06-05T02:32:59;1999.90;;;999.90;;
13250;SDS011;6692;50.710;7.180;2023-06-05T02:35:00;1999.90;;;999.90;;
13250;SDS011;6692;50.710;7.180;2023-06-05T02:37:01;1999.90;;;999.90;;
13250;SDS011;6692;50.710;7.180;2023-06-05T02:39:02;1999.90;;;999.90;;
13250;SDS011;6692;50.710;7.180;2023-06-05T02:41:03;1999.90;;;999.90;;
13250;SDS011;6692;50.710;7.180;2023-06-05T02:43:05;1999.90;;;999.90;;
13250;SDS011;6692;50.710;7.180;2023-06-05T02:45:07;1999.90;;;999.90;;
13250;SDS011;6692;50.710;7.180;2023-06-05T02:47:09;1999.90;;;999.90;;
13250;SDS011;6692;50.710;7.180;2023-06-05T02:49:10;1999.90;;;999.90;;
13250;SDS011;6692;50.710;7.180;2023-06-05T02:51:10;1999.90;;;999.90;;
13250;SDS011;6692;50.710;7.180;2023-06-05T02:53:12;1999.90;;;999.90;;
13250;SDS011;6692;50.710;7.180;2023-06-05T02:55:13;1999.90;;;999.90;;
13250;SDS011;6692;50.710;7.180;2023-06-05T02:57:14;1999.90;;;999.90;;
13250;SDS011;6692;50.710;7.180;2023-06-05T02:59:15;1999.90;;;999.90;;
13250;SDS011;6692;50.710;7.180;2023-06-05T03:01:16;1999.90;;;999.90;;
13250;SDS011;6692;50.710;7.180;2023-06-05T03:03:17;1999.90;;;999.90;;
13250;SDS011;6692;50.710;7.180;2023-06-05T03:05:18;1999.90;;;999.90;;
13250;SDS011;6692;50.710;7.180;2023-06-05T03:07:19;1999.90;;;999.90;;
13250;SDS011;6692;50.710;7.180;2023-06-05T03:09:19;1999.90;;;999.90;;
13250;SDS011;6692;50.710;7.180;2023-06-05T03:11:20;1999.90;;;999.90;;
13250;SDS011;6692;50.710;7.180;2023-06-05T03:13:21;1999.90;;;999.90;;
13250;SDS011;6692;50.710;7.180;2023-06-05T03:15:22;1999.90;;;999.90;;
13250;SDS011;6692;50.710;7.180;2023-06-05T03:17:22;1999.90;;;999.90;;
13250;SDS011;6692;50.710;7.180;2023-06-05T03:19:24;1999.90;;;999.90;;
13250;SDS011;6692;50.710;7.180;2023-06-05T03:21:24;1999.90;;;999.90;;
13250;SDS011;6692;50.710;7.180;2023-06-05T03:23:25;1999.90;;;999.90;;
13250;SDS011;6692;50.710;7.180;2023-06-05T03:25:25;1999.90;;;999.90;;
13250;SDS011;6692;50.710;7.180;2023-06-05T03:27:26;1999.90;;;999.90;;
13250;SDS011;6692;50.710;7.180;2023-06-05T03:29:27;1999.90;;;999.90;;
13250;SDS011;6692;50.710;7.180;2023-06-05T03:31:28;1999.90;;;999.90;;
13250;SDS011;6692;50.710;7.180;2023-06-05T03:33:29;1999.90;;;999.90;;
13250;SDS011;6692;50.710;7.180;2023-06-05T03:35:31;1999.90;;;999.90;;
13250;SDS011;6692;50.710;7.180;2023-06-05T03:37:32;1999.90;;;999.90;;
13250;SDS011;6692;50.710;7.180;2023-06-05T03:39:33;1999.90;;;999.90;;
13250;SDS011;6692;50.710;7.180;2023-06-05T03:41:34;1999.90;;;999.90;;
13250;SDS011;6692;50.710;7.180;2023-06-05T03:43:34;1999.90;;;999.90;;
13250;SDS011;6692;50.710;7.180;2023-06-05T03:45:36;1999.90;;;999.90;;
13250;SDS011;6692;50.710;7.180;2023-06-05T03:47:37;1999.90;;;999.90;;
13250;SDS011;6692;50.710;7.180;2023-06-05T03:49:39;1999.90;;;999.90;;
13250;SDS011;6692;50.710;7.180;2023-06-05T03:51:40;1999.90;;;999.90;;
13250;SDS011;6692;50.710;7.180;2023-06-05T03:53:40;1999.90;;;999.90;;
13250;SDS011;6692;50.710;7.180;2023-06-05T03:55:41;1999.90;;;999.90;;
13250;SDS011;6692;50.710;7.180;2023-06-05T03:57:42;1999.90;;;999.90;;
13250;SDS011;6692;50.710;7.180;2023-06-05T03:59:42;1999.90;;;999.90;;
13250;SDS011;6692;50.710;7.180;2023-06-05T04:01:43;1999.90;;;999.90;;
13250;SDS011;6692;50.710;7.180;2023-06-05T04:03:44;1999.90;;;999.90;;
13250;SDS011;6692;50.710;7.180;2023-06-05T04:05:45;1999.90;;;999.90;;
13250;SDS011;6692;50.710;7.180;2023-06-05T04:07:45;1999.90;;;999.90;;
13250;SDS011;6692;50.710;7.180;2023-06-05T04:09:46;1999.90;;;999.90;;
13250;SDS011;6692;50.710;7.180;2023-06-05T04:11:47;1999.90;;;999.90;;
13250;SDS011;6692;50.710;7.180;2023-06-05T04:13:48;1999.90;;;999.90;;
13250;SDS011;6692;50.710;7.180;2023-06-05T04:15:49;1999.90;;;999.90;;
13250;SDS011;6692;50.710;7.180;2023-06-05T04:17:50;1999.90;;;999.90;;
13250;SDS011;6692;50.710;7.180;2023-06-05T04:19:51;1999.90;;;999.90;;
13250;SDS011;6692;50.710;7.180;2023-06-05T04:21:51;1999.90;;;999.90;;
13250;SDS011;6692;50.710;7.180;2023-06-05T04:23:53;1999.90;;;999.90;;
13250;SDS011;6692;50.710;7.180;2023-06-05T04:25:54;1999.90;;;999.90;;
13250;SDS011;6692;50.710;7.180;2023-06-05T04:27:55;1999.90;;;999.90;;
13250;SDS011;6692;50.710;7.180;2023-06-05T04:29:55;1999.90;;;999.90;;
13250;SDS011;6692;50.710;7.180;2023-06-05T04:31:56;1999.90;;;999.90;;
13250;SDS011;6692;50.710;7.180;2023-06-05T04:33:57;1999.90;;;999.90;;
13250;SDS011;6692;50.710;7.180;2023-06-05T04:35:57;1999.90;;;999.90;;
13250;SDS011;6692;50.710;7.180;2023-06-05T04:37:58;1999.90;;;999.90;;
13250;SDS011;6692;50.710;7.180;2023-06-05T04:39:59;1999.90;;;999.90;;
13250;SDS011;6692;50.710;7.180;2023-06-05T04:42:00;1999.90;;;999.90;;
13250;SDS011;6692;50.710;7.180;2023-06-05T04:44:01;1999.90;;;999.90;;
13250;SDS011;6692;50.710;7.180;2023-06-05T04:46:02;1999.90;;;999.90;;
13250;SDS011;6692;50.710;7.180;2023-06-05T04:48:03;1999.90;;;999.90;;
13250;SDS011;6692;50.710;7.180;2023-06-05T04:50:04;1999.90;;;999.90;;
13250;SDS011;6692;50.710;7.180;2023-06-05T04:52:06;1999.90;;;999.90;;
13250;SDS011;6692;50.710;7.180;2023-06-05T04:54:07;1999.90;;;999.90;;
13250;SDS011;6692;50.710;7.180;2023-06-05T04:56:08;1999.90;;;999.90;;
13250;SDS011;6692;50.710;7.180;2023-06-05T04:58:10;1999.90;;;999.90;;
13250;SDS011;6692;50.710;7.180;2023-06-05T05:00:12;1999.90;;;999.90;;
13250;SDS011;6692;50.710;7.180;2023-06-05T05:02:13;1999.90;;;999.90;;
13250;SDS011;6692;50.710;7.180;2023-06-05T05:04:14;1999.90;;;999.90;;
13250;SDS011;6692;50.710;7.180;2023-06-05T05:06:15;1999.90;;;999.90;;
13250;SDS011;6692;50.710;7.180;2023-06-05T05:08:15;1999.90;;;999.90;;
13250;SDS011;6692;50.710;7.180;2023-06-05T05:10:16;1999.90;;;999.90;;
13250;SDS011;6692;50.710;7.180;2023-06-05T05:12:17;1999.90;;;999.90;;
13250;SDS011;6692;50.710;7.180;2023-06-05T05:14:19;1999.90;;;999.90;;
13250;SDS011;6692;50.710;7.180;2023-06-05T05:16:20;1999.90;;;999.90;;
13250;SDS011;6692;50.710;7.180;2023-06-05T05:18:21;1999.90;;;999.90;;
13250;SDS011;6692;50.710;7.180;2023-06-05T05:20:23;1999.90;;;999.90;;
13250;SDS011;6692;50.710;7.180;2023-06-05T05:22:24;1999.90;;;999.90;;
13250;SDS011;6692;50.710;7.180;2023-06-05T05:24:27;1999.90;;;999.90;;
13250;SDS011;6692;50.710;7.180;2023-06-05T05:26:28;1999.90;;;999.90;;
13250;SDS011;6692;50.710;7.180;2023-06-05T05:28:29;1999.90;;;999.90;;
13250;SDS011;6692;50.710;7.180;2023-06-05T05:30:31;1999.90;;;999.90;;
13250;SDS011;6692;50.710;7.180;2023-06-05T05:32:32;1999.90;;;999.90;;
13250;SDS011;6692;50.710;7.180;2023-06-05T05:34:33;1999.90;;;999.90;;
13250;SDS011;6692;50.710;7.180;2023-06-05T05:36:34;1999.90;;;999.90;;
13250;SDS011;6692;50.710;7.180;2023-06-05T05:38:35;1999.90;;;999.90;;
13250;SDS011;6692;50.710;7.180;2023-06-05T05:40:36;1999.90;;;999.90;;
13250;SDS011;6692;50.710;7.180;2023-06-05T05:42:38;1999.90;;;999.90;;
13250;SDS011;6692;50.710;7.180;2023-06-05T05:44:39;1999.90;;;999.90;;
13250;SDS011;6692;50.710;7.180;2023-06-05T05:46:40;1999.90;;;999.90;;
13250;SDS011;6692;50.710;7.180;2023-06-05T05:48:41;1999.90;;;999.90;;
13250;SDS011;6692;50.710;7.180;2023-06-05T05:50:41;1999.90;;;999.90;;
13250;SDS011;6692;50.710;7.180;2023-06-05T05:52:42;1999.90;;;999.90;;
13250;SDS011;6692;50.710;7.180;2023-06-05T05:54:45;1999.90;;;999.90;;
13250;SDS011;6692;50.710;7.180;2023-06-05T05:56:45;1999.90;;;999.90;;
13250;SDS011;6692;50.710;7.180;2023-06-05T05:58:47;1999.90;;;999.90;;
13250;SDS011;6692;50.710;7.180;2023-06-05T06:00:47;1999.90;;;999.90;;
13250;SDS011;6692;50.710;7.180;2023-06-05T06:02:48;1999.90;;;999.90;;
13250;SDS011;6692;50.710;7.180;2023-06-05T06:04:49;1999.90;;;999.90;;
13250;SDS011;6692;50.710;7.180;2023-06-05T06:06:50;1999.90;;;999.90;;
13250;SDS011;6692;50.710;7.180;2023-06-05T06:08:51;1999.90;;;999.90;;
13250;SDS011;6692;50.710;7.180;2023-06-05T06:10:53;1999.90;;;999.90;;
13250;SDS011;6692;50.710;7.180;2023-06-05T06:12:53;1999.90;;;999.90;;
13250;SDS011;6692;50.710;7.180;2023-06-05T06:14:54;1999.90;;;999.90;;
13250;SDS011;6692;50.710;7.180;2023-06-05T06:16:55;1999.90;;;999.90;;
13250;SDS011;6692;50.710;7.180;2023-06-05T06:18:56;1999.90;;;999.90;;
13250;SDS011;6692;50.710;7.180;2023-06-05T06:20:58;1999.90;;;999.90;;
13250;SDS011;6692;50.710;7.180;2023-06-05T06:22:59;1999.90;;;999.90;;
13250;SDS011;6692;50.710;7.180;2023-06-05T06:24:59;1999.90;;;999.90;;
13250;SDS011;6692;50.710;7.180;2023-06-05T06:27:00;1999.90;;;999.90;;
13250;SDS011;6692;50.710;7.180;2023-06-05T06:29:01;1999.90;;;999.90;;
13250;SDS011;6692;50.710;7.180;2023-06-05T06:31:02;1999.90;;;999.90;;
13250;SDS011;6692;50.710;7.180;2023-06-05T06:33:04;1999.90;;;999.90;;
13250;SDS011;6692;50.710;7.180;2023-06-05T06:35:05;1999.90;;;999.90;;
13250;SDS011;6692;50.710;7.180;2023-06-05T06:37:06;1999.90;;;999.90;;
13250;SDS011;6692;50.710;7.180;2023-06-05T06:39:07;1999.90;;;999.90;;
13250;SDS011;6692;50.710;7.180;2023-06-05T06:41:08;1999.90;;;999.90;;
13250;SDS011;6692;50.710;7.180;2023-06-05T06:43:08;1999.90;;;999.90;;
13250;SDS011;6692;50.710;7.180;2023-06-05T06:45:09;1999.90;;;999.90;;
13250;SDS011;6692;50.710;7.180;2023-06-05T06:47:10;1999.90;;;999.90;;
13250;SDS011;6692;50.710;7.180;2023-06-05T06:49:12;1999.90;;;999.90;;
13250;SDS011;6692;50.710;7.180;2023-06-05T06:51:13;1999.90;;;999.90;;
13250;SDS011;6692;50.710;7.180;2023-06-05T06:53:13;1999.90;;;999.90;;
13250;SDS011;6692;50.710;7.180;2023-06-05T06:55:14;1999.90;;;999.90;;
13250;SDS011;6692;50.710;7.180;2023-06-05T06:57:15;1999.90;;;999.90;;
13250;SDS011;6692;50.710;7.180;2023-06-05T06:59:17;1999.90;;;999.90;;
13250;SDS011;6692;50.710;7.180;2023-06-05T07:01:17;1999.90;;;999.90;;
13250;SDS011;6692;50.710;7.180;2023-06-05T07:03:18;1999.90;;;999.90;;
13250;SDS011;6692;50.710;7.180;2023-06-05T07:05:19;1999.90;;;999.90;;
13250;SDS011;6692;50.710;7.180;2023-06-05T07:07:20;1999.90;;;999.90;;
13250;SDS011;6692;50.710;7.180;2023-06-05T07:09:21;1999.90;;;999.90;;
13250;SDS011;6692;50.710;7.180;2023-06-05T07:11:22;1999.90;;;999.90;;
13250;SDS011;6692;50.710;7.180;2023-06-05T07:13:22;1999.90;;;999.90;;
13250;SDS011;6692;50.710;7.180;2023-06-05T07:15:23;1999.90;;;999.90;;
13250;SDS011;6692;50.710;7.180;2023-06-05T07:17:25;1999.90;;;999.90;;
13250;SDS011;6692;50.710;7.180;2023-06-05T07:19:26;1999.90;;;999.90;;
13250;SDS011;6692;50.710;7.180;2023-06-05T07:21:26;1999.90;;;999.90;;
13250;SDS011;6692;50.710;7.180;2023-06-05T07:23:27;1999.90;;;999.90;;
13250;SDS011;6692;50.710;7.180;2023-06-05T07:25:28;1999.90;;;999.90;;
13250;SDS011;6692;50.710;7.180;2023-06-05T07:27:29;1999.90;;;999.90;;
13250;SDS011;6692;50.710;7.180;2023-06-05T07:29:30;1999.90;;;999.90;;
13250;SDS011;6692;50.710;7.180;2023-06-05T07:31:32;1999.90;;;999.90;;
13250;SDS011;6692;50.710;7.180;2023-06-05T07:33:33;1999.90;;;999.90;;
13250;SDS011;6692;50.710;7.180;2023-06-05T07:35:34;1999.90;;;999.90;;
13250;SDS011;6692;50.710;7.180;2023-06-05T07:37:35;1999.90;;;999.90;;
13250;SDS011;6692;50.710;7.180;2023-06-05T07:39:36;1999.90;;;999.90;;
13250;SDS011;6692;50.710;7.180;2023-06-05T07:41:38;1999.90;;;999.90;;
13250;SDS011;6692;50.710;7.180;2023-06-05T07:43:38;1999.90;;;999.90;;
13250;SDS011;6692;50.710;7.180;2023-06-05T07:45:39;1999.90;;;999.90;;
13250;SDS011;6692;50.710;7.180;2023-06-05T07:47:40;1999.90;;;999.90;;
13250;SDS011;6692;50.710;7.180;2023-06-05T07:49:41;1999.90;;;999.90;;
13250;SDS011;6692;50.710;7.180;2023-06-05T07:51:42;1999.90;;;999.90;;
13250;SDS011;6692;50.710;7.180;2023-06-05T07:53:43;1999.90;;;999.90;;
13250;SDS011;6692;50.710;7.180;2023-06-05T07:55:43;1999.90;;;999.90;;
13250;SDS011;6692;50.710;7.180;2023-06-05T07:57:44;1999.90;;;999.90;;
13250;SDS011;6692;50.710;7.180;2023-06-05T07:59:44;1999.90;;;999.90;;
13250;SDS011;6692;50.710;7.180;2023-06-05T08:01:45;1999.90;;;999.90;;
13250;SDS011;6692;50.710;7.180;2023-06-05T08:03:46;1999.90;;;999.90;;
13250;SDS011;6692;50.710;7.180;2023-06-05T08:05:47;1999.90;;;999.90;;
13250;SDS011;6692;50.710;7.180;2023-06-05T08:07:47;1999.90;;;999.90;;
13250;SDS011;6692;50.710;7.180;2023-06-05T08:09:48;1999.90;;;999.90;;
13250;SDS011;6692;50.710;7.180;2023-06-05T08:11:49;1999.90;;;999.90;;
13250;SDS011;6692;50.710;7.180;2023-06-05T08:13:50;1999.90;;;999.90;;
13250;SDS011;6692;50.710;7.180;2023-06-05T08:15:51;1999.90;;;999.90;;
13250;SDS011;6692;50.710;7.180;2023-06-05T08:17:52;1999.90;;;999.90;;
13250;SDS011;6692;50.710;7.180;2023-06-05T08:19:53;1999.90;;;999.90;;
13250;SDS011;6692;50.710;7.180;2023-06-05T08:21:53;1999.90;;;999.90;;
13250;SDS011;6692;50.710;7.180;2023-06-05T08:23:54;1999.90;;;999.90;;
13250;SDS011;6692;50.710;7.180;2023-06-05T08:25:55;1999.90;;;999.90;;
13250;SDS011;6692;50.710;7.180;2023-06-05T08:27:55;1999.90;;;999.90;;
13250;SDS011;6692;50.710;7.180;2023-06-05T08:29:56;1999.90;;;999.90;;
13250;SDS011;6692;50.710;7.180;2023-06-05T08:31:57;1999.90;;;999.90;;
13250;SDS011;6692;50.710;7.180;2023-06-05T08:33:58;1999.90;;;999.90;;
13250;SDS011;6692;50.710;7.180;2023-06-05T08:35:58;1999.90;;;999.90;;
13250;SDS011;6692;50.710;7.180;2023-06-05T08:37:59;1999.90;;;999.90;;
13250;SDS011;6692;50.710;7.180;2023-06-05T08:40:00;1999.90;;;999.90;;
13250;SDS011;6692;50.710;7.180;2023-06-05T08:42:01;1999.90;;;999.90;;
13250;SDS011;6692;50.710;7.180;2023-06-05T08:44:02;1999.90;;;999.90;;
13250;SDS011;6692;50.710;7.180;2023-06-05T08:46:02;1999.90;;;999.90;;
13250;SDS011;6692;50.710;7.180;2023-06-05T08:48:03;1999.90;;;999.90;;
13250;SDS011;6692;50.710;7.180;2023-06-05T08:50:05;1999.90;;;999.90;;
13250;SDS011;6692;50.710;7.180;2023-06-05T08:52:08;1999.90;;;999.90;;
13250;SDS011;6692;50.710;7.180;2023-06-05T08:54:09;1999.90;;;999.90;;
13250;SDS011;6692;50.710;7.180;2023-06-05T08:56:09;1999.90;;;999.90;;
13250;SDS011;6692;50.710;7.180;2023-06-05T08:58:10;1999.90;;;999.90;;
13250;SDS011;6692;50.710;7.180;2023-06-05T09:00:11;1999.90;;;999.90;;
13250;SDS011;6692;50.710;7.180;2023-06-05T09:02:12;1999.90;;;999.90;;
13250;SDS011;6692;50.710;7.180;2023-06-05T09:04:13;1999.90;;;999.90;;
13250;SDS011;6692;50.710;7.180;2023-06-05T09:06:14;1999.90;;;999.90;;
13250;SDS011;6692;50.710;7.180;2023-06-05T09:08:15;1999.90;;;999.90;;
13250;SDS011;6692;50.710;7.180;2023-06-05T09:10:23;1999.90;;;999.90;;
13250;SDS011;6692;50.710;7.180;2023-06-05T09:12:23;1999.90;;;999.90;;
13250;SDS011;6692;50.710;7.180;2023-06-05T09:14:25;1999.90;;;999.90;;
13250;SDS011;6692;50.710;7.180;2023-06-05T09:16:40;1999.90;;;999.90;;
13250;SDS011;6692;50.710;7.180;2023-06-05T09:20:55;1999.90;;;999.90;;
13250;SDS011;6692;50.710;7.180;2023-06-05T09:22:55;1999.90;;;999.90;;
13250;SDS011;6692;50.710;7.180;2023-06-05T09:24:56;1999.90;;;999.90;;
13250;SDS011;6692;50.710;7.180;2023-06-05T09:26:58;1999.90;;;999.90;;
13250;SDS011;6692;50.710;7.180;2023-06-05T09:29:02;1999.90;;;999.90;;
13250;SDS011;6692;50.710;7.180;2023-06-05T09:31:03;1999.90;;;999.90;;
13250;SDS011;6692;50.710;7.180;2023-06-05T09:33:08;1999.90;;;999.90;;
13250;SDS011;6692;50.710;7.180;2023-06-05T09:35:08;1999.90;;;999.90;;
13250;SDS011;6692;50.710;7.180;2023-06-05T09:37:09;1999.90;;;999.90;;
13250;SDS011;6692;50.710;7.180;2023-06-05T09:39:14;1999.90;;;999.90;;
13250;SDS011;6692;50.710;7.180;2023-06-05T09:41:16;1999.90;;;999.90;;
13250;SDS011;6692;50.710;7.180;2023-06-05T09:43:20;1999.90;;;999.90;;
13250;SDS011;6692;50.710;7.180;2023-06-05T09:45:18;1999.90;;;999.90;;
13250;SDS011;6692;50.710;7.180;2023-06-05T09:47:20;1999.90;;;999.90;;
13250;SDS011;6692;50.710;7.180;2023-06-05T09:49:23;1999.90;;;999.90;;
13250;SDS011;6692;50.710;7.180;2023-06-05T09:51:21;1999.90;;;999.90;;
13250;SDS011;6692;50.710;7.180;2023-06-05T09:53:22;1999.90;;;999.90;;
13250;SDS011;6692;50.710;7.180;2023-06-05T09:55:23;1999.90;;;999.90;;
13250;SDS011;6692;50.710;7.180;2023-06-05T09:57:24;1999.90;;;999.90;;
13250;SDS011;6692;50.710;7.180;2023-06-05T09:59:27;1999.90;;;999.90;;
13250;SDS011;6692;50.710;7.180;2023-06-05T10:04:10;1999.90;;;999.90;;
13250;SDS011;6692;50.710;7.180;2023-06-05T10:06:10;1999.90;;;999.90;;
13250;SDS011;6692;50.710;7.180;2023-06-05T10:08:11;1999.90;;;999.90;;
13250;SDS011;6692;50.710;7.180;2023-06-05T10:10:11;1999.90;;;999.90;;
13250;SDS011;6692;50.710;7.180;2023-06-05T10:12:12;1999.90;;;999.90;;
13250;SDS011;6692;50.710;7.180;2023-06-05T10:14:14;1999.90;;;999.90;;
13250;SDS011;6692;50.710;7.180;2023-06-05T10:16:16;1999.90;;;999.90;;
13250;SDS011;6692;50.710;7.180;2023-06-05T10:18:15;1999.90;;;999.90;;
13250;SDS011;6692;50.710;7.180;2023-06-05T10:20:16;1999.90;;;999.90;;
13250;SDS011;6692;50.710;7.180;2023-06-05T10:22:17;1999.90;;;999.90;;
13250;SDS011;6692;50.710;7.180;2023-06-05T10:24:19;1999.90;;;999.90;;
13250;SDS011;6692;50.710;7.180;2023-06-05T10:28:49;1999.90;;;999.90;;
13250;SDS011;6692;50.710;7.180;2023-06-05T10:30:55;1999.90;;;999.90;;
13250;SDS011;6692;50.710;7.180;2023-06-05T10:33:11;1999.90;;;999.90;;
13250;SDS011;6692;50.710;7.180;2023-06-05T10:35:18;1999.90;;;999.90;;
13250;SDS011;6692;50.710;7.180;2023-06-05T10:37:27;1999.90;;;999.90;;
13250;SDS011;6692;50.710;7.180;2023-06-05T10:39:28;1999.90;;;999.90;;
13250;SDS011;6692;50.710;7.180;2023-06-05T10:41:28;1999.90;;;999.90;;
13250;SDS011;6692;50.710;7.180;2023-06-05T10:43:31;1999.90;;;999.90;;
13250;SDS011;6692;50.710;7.180;2023-06-05T10:45:32;1999.90;;;999.90;;
13250;SDS011;6692;50.710;7.180;2023-06-05T10:47:47;1999.90;;;999.90;;
13250;SDS011;6692;50.710;7.180;2023-06-05T10:50:18;1999.90;;;999.90;;
13250;SDS011;6692;50.710;7.180;2023-06-05T10:51:49;1999.90;;;999.90;;
13250;SDS011;6692;50.710;7.180;2023-06-05T10:53:49;1999.90;;;999.90;;
13250;SDS011;6692;50.710;7.180;2023-06-05T10:55:50;1999.90;;;999.90;;
13250;SDS011;6692;50.710;7.180;2023-06-05T11:00:09;1999.90;;;999.90;;
13250;SDS011;6692;50.710;7.180;2023-06-05T11:04:26;1999.90;;;999.90;;
13250;SDS011;6692;50.710;7.180;2023-06-05T11:06:27;1999.90;;;999.90;;
13250;SDS011;6692;50.710;7.180;2023-06-05T11:08:28;1999.90;;;999.90;;
13250;SDS011;6692;50.710;7.180;2023-06-05T11:10:28;1999.90;;;999.90;;
13250;SDS011;6692;50.710;7.180;2023-06-05T11:14:53;1999.90;;;999.90;;
13250;SDS011;6692;50.710;7.180;2023-06-05T11:16:54;1999.90;;;999.90;;
13250;SDS011;6692;50.710;7.180;2023-06-05T11:19:19;1999.90;;;999.90;;
13250;SDS011;6692;50.710;7.180;2023-06-05T11:20:56;160.90;;;155.20;;
13250;SDS011;6692;50.710;7.180;2023-06-05T11:23:06;154.93;;;149.33;;
13250;SDS011;6692;50.710;7.180;2023-06-05T11:27:41;68.53;;;65.93;;
13250;SDS011;6692;50.710;7.180;2023-06-05T11:29:42;70.23;;;67.43;;
13250;SDS011;6692;50.710;7.180;2023-06-05T11:31:43;1392.00;;;723.20;;
13250;SDS011;6692;50.710;7.180;2023-06-05T11:33:44;174.47;;;168.23;;
13250;SDS011;6692;50.710;7.180;2023-06-05T11:35:45;151.30;;;146.03;;
13250;SDS011;6692;50.710;7.180;2023-06-05T11:37:45;152.17;;;146.80;;
13250;SDS011;6692;50.710;7.180;2023-06-05T11:39:46;147.90;;;142.80;;
13250;SDS011;6692;50.710;7.180;2023-06-05T11:41:47;125.43;;;120.93;;
13250;SDS011;6692;50.710;7.180;2023-06-05T11:43:47;120.73;;;116.30;;
13250;SDS011;6692;50.710;7.180;2023-06-05T11:45:51;156.70;;;151.07;;
13250;SDS011;6692;50.710;7.180;2023-06-05T11:47:51;165.33;;;159.37;;